Time;durP1;ratioP1;P1;durP2;ratioP2;P2;SDS_P1;SDS_P2;PMS_P1;PMS_P2;Temp;Humidity;BMP_temperature;BMP_pressure;BME280_temperature;BME280_humidity;BME280_pressure;Samples;Min_cycle;Max_cycle;Signal;HPM_P1;HPM_P2
2022/08/22 00:00:13;;;;;;;0.77;0.60;;;16.80;99.90;;;;;;5031833;28;20037;-55
2022/08/22 00:02:57;;;;;;;1.52;0.70;;;16.70;99.90;;;;;;5038628;28;20560;-56
2022/08/22 00:05:35;;;;;;;1.05;0.50;;;16.70;99.90;;;;;;5041472;28;20870;-56
2022/08/22 00:08:14;;;;;;;3.00;0.73;;;16.70;99.90;;;;;;5039154;28;20033;-55
2022/08/22 00:10:53;;;;;;;2.58;0.70;;;16.80;99.90;;;;;;5038957;28;20025;-56
2022/08/22 00:13:49;;;;;;;1.45;0.55;;;16.70;99.90;;;;;;5038366;28;20036;-56
2022/08/22 00:16:28;;;;;;;1.58;0.57;;;16.70;99.90;;;;;;5042157;28;20044;-56
2022/08/22 00:19:23;;;;;;;0.98;0.50;;;16.70;99.90;;;;;;5031239;28;20499;-56
2022/08/22 00:21:58;;;;;;;1.77;0.80;;;16.70;99.90;;;;;;5019102;28;20128;-56
2022/08/22 00:24:39;;;;;;;1.52;0.50;;;16.70;99.90;;;;;;5039777;28;20021;-56
2022/08/22 00:27:13;;;;;;;2.70;0.77;;;16.70;99.90;;;;;;5039696;28;20091;-56
2022/08/22 00:29:54;;;;;;;2.35;0.70;;;16.70;99.90;;;;;;5036851;28;20033;-56
2022/08/22 00:32:32;;;;;;;1.10;0.60;;;16.70;99.90;;;;;;5038185;28;20013;-56
2022/08/22 00:35:20;;;;;;;1.70;0.65;;;16.70;99.90;;;;;;5037583;28;20040;-55
2022/08/22 00:38:18;;;;;;;2.65;0.65;;;16.70;99.90;;;;;;5019866;28;20017;-55
2022/08/22 00:41:00;;;;;;;2.38;0.95;;;16.70;99.90;;;;;;5028073;28;20046;-56
2022/08/22 00:43:50;;;;;;;1.85;0.90;;;16.70;99.90;;;;;;5039739;28;20112;-57
2022/08/22 00:46:33;;;;;;;1.55;0.73;;;16.80;99.90;;;;;;5041471;28;20096;-56
2022/08/22 00:48:59;;;;;;;1.27;0.75;;;16.70;99.90;;;;;;5037692;28;20022;-56
2022/08/22 00:52:03;;;;;;;1.75;0.73;;;16.80;99.90;;;;;;5040498;28;20021;-56
2022/08/22 00:54:37;;;;;;;2.70;0.65;;;16.80;99.90;;;;;;5040138;28;20029;-56
2022/08/22 00:57:35;;;;;;;0.93;0.70;;;16.80;99.90;;;;;;5038662;28;20033;-56
2022/08/22 01:00:12;;;;;;;0.88;0.60;;;16.70;99.90;;;;;;5014853;28;20053;-56
2022/08/22 01:02:50;;;;;;;2.25;0.88;;;16.70;99.90;;;;;;5031742;28;20025;-56
2022/08/22 01:05:35;;;;;;;;;;;16.70;99.90;;;;;;5032087;28;20108;-56
2022/08/22 01:08:20;;;;;;;1.50;0.70;;;16.70;99.90;;;;;;5030930;28;20361;-55
2022/08/22 01:11:10;;;;;;;1.83;0.60;;;16.60;99.90;;;;;;5031664;28;20097;-56
2022/08/22 01:13:50;;;;;;;4.32;1.83;;;16.60;99.90;;;;;;5031572;28;20025;-56
2022/08/22 01:16:54;;;;;;;3.33;0.98;;;16.60;99.90;;;;;;5031495;28;20366;-56
2022/08/22 01:20:12;;;;;;;2.15;1.10;;;16.60;99.90;;;;;;5031272;28;20037;-56
2022/08/22 01:22:55;;;;;;;2.88;1.30;;;16.60;99.90;;;;;;4969841;28;20034;-55
2022/08/22 01:25:42;;;;;;;6.13;1.55;;;16.60;99.90;;;;;;5025288;28;20095;-56
2022/08/22 01:28:53;;;;;;;4.15;1.63;;;16.60;99.90;;;;;;5013371;28;20385;-55
2022/08/22 01:31:41;;;;;;;2.97;1.23;;;16.60;99.90;;;;;;5007612;28;20077;-56
2022/08/22 01:34:07;;;;;;;;;;;16.60;99.90;;;;;;5031663;28;20117;-56
2022/08/22 01:37:07;;;;;;;2.65;1.30;;;16.60;99.90;;;;;;5030204;28;20003;-56
2022/08/22 01:39:33;;;;;;;3.63;2.10;;;16.60;99.90;;;;;;5030115;28;20493;-55
2022/08/22 01:42:19;;;;;;;5.25;1.88;;;16.60;99.90;;;;;;5012507;28;20087;-55
2022/08/22 01:45:06;;;;;;;5.18;1.60;;;16.60;99.90;;;;;;5030604;28;20026;-56
2022/08/22 01:47:39;;;;;;;5.22;2.20;;;16.60;99.90;;;;;;5013305;28;20555;-56
2022/08/22 01:50:22;;;;;;;5.07;2.38;;;16.60;99.90;;;;;;5031164;28;20033;-56
2022/08/22 01:53:27;;;;;;;4.95;2.40;;;16.60;99.90;;;;;;5030860;28;20030;-55
2022/08/22 01:56:14;;;;;;;3.85;2.00;;;16.50;99.90;;;;;;5007385;28;20087;-54
2022/08/22 01:59:00;;;;;;;6.28;2.40;;;16.50;99.90;;;;;;5030625;28;20098;-54
2022/08/22 02:01:37;;;;;;;5.80;2.67;;;16.50;99.90;;;;;;5030691;28;20037;-55
2022/08/22 02:04:33;;;;;;;6.72;3.05;;;16.50;99.90;;;;;;5030667;28;20405;-55
2022/08/22 02:06:58;;;;;;;8.18;3.20;;;16.50;99.90;;;;;;5022301;28;20370;-55
2022/08/22 02:09:46;;;;;;;7.28;3.63;;;16.50;99.90;;;;;;5030413;28;20045;-55
2022/08/22 02:12:40;;;;;;;6.35;3.75;;;16.50;99.90;;;;;;5030455;28;20131;-55
2022/08/22 02:15:39;;;;;;;8.95;4.38;;;16.50;99.90;;;;;;5011717;28;20034;-55
2022/08/22 02:18:05;;;;;;;6.85;4.25;;;16.40;99.90;;;;;;5030218;28;20066;-56
2022/08/22 02:20:56;;;;;;;7.68;4.53;;;16.50;99.90;;;;;;5028807;28;20057;-56
2022/08/22 02:23:40;;;;;;;7.60;4.35;;;16.50;99.90;;;;;;5012124;28;20146;-56
2022/08/22 02:26:18;;;;;;;12.48;5.53;;;16.50;99.90;;;;;;5029402;28;20056;-56
2022/08/22 02:29:09;;;;;;;7.65;4.70;;;16.50;99.90;;;;;;5010629;28;20086;-56
2022/08/22 02:31:43;;;;;;;9.80;4.93;;;16.50;99.90;;;;;;5010511;28;20046;-56
2022/08/22 02:34:46;;;;;;;9.07;5.72;;;16.50;99.90;;;;;;5010177;28;20033;-56
2022/08/22 02:37:35;;;;;;;10.50;5.40;;;16.50;99.90;;;;;;5010467;28;20017;-56
2022/08/22 02:40:15;;;;;;;10.20;5.72;;;16.50;99.90;;;;;;5002083;28;20553;-56
2022/08/22 02:42:48;;;;;;;13.38;6.43;;;16.50;99.90;;;;;;5010237;28;20034;-56
2022/08/22 02:45:44;;;;;;;9.93;6.90;;;16.50;99.90;;;;;;5010141;28;20033;-56
2022/08/22 02:48:18;;;;;;;9.55;6.00;;;16.50;99.90;;;;;;5010015;28;20118;-56
2022/08/22 02:51:00;;;;;;;11.10;6.60;;;16.50;99.90;;;;;;5009953;28;20120;-56
2022/08/22 02:53:58;;;;;;;13.10;7.70;;;16.50;99.90;;;;;;5008705;28;20030;-57
2022/08/22 02:56:34;;;;;;;12.70;7.25;;;16.50;99.90;;;;;;5009421;28;20440;-56
2022/08/22 02:59:15;;;;;;;10.45;6.90;;;16.50;99.90;;;;;;5010092;28;20022;-56
2022/08/22 03:01:44;;;;;;;14.13;7.75;;;16.60;99.90;;;;;;5010094;28;20091;-56
2022/08/22 03:04:40;;;;;;;11.93;7.53;;;16.60;99.90;;;;;;5010083;28;20085;-57
2022/08/22 03:07:27;;;;;;;12.70;8.07;;;16.60;99.90;;;;;;4984851;28;20457;-56
2022/08/22 03:10:16;;;;;;;12.90;7.65;;;16.60;99.90;;;;;;5010097;28;20022;-58
2022/08/22 03:13:05;;;;;;;15.13;8.48;;;16.60;99.90;;;;;;5008826;28;20018;-57
2022/08/22 03:15:53;;;;;;;10.63;7.82;;;16.60;99.90;;;;;;5009995;28;20100;-55
2022/08/22 03:18:20;;;;;;;15.10;7.72;;;16.60;99.90;;;;;;5009798;28;20077;-56
2022/08/22 03:20:57;;;;;;;10.93;7.68;;;16.70;99.90;;;;;;5009815;28;20714;-56
2022/08/22 03:23:24;;;;;;;12.13;7.45;;;16.60;99.90;;;;;;5008511;28;20192;-56
2022/08/22 03:26:14;;;;;;;13.38;7.78;;;16.60;99.90;;;;;;5009656;28;20062;-56
2022/08/22 03:28:52;;;;;;;9.65;7.05;;;16.60;99.90;;;;;;5008495;28;20512;-56
2022/08/22 03:31:21;;;;;;;13.75;8.13;;;16.60;99.90;;;;;;5012562;28;20085;-56
2022/08/22 03:34:15;;;;;;;11.18;7.63;;;16.60;99.90;;;;;;5013523;28;20030;-56
2022/08/22 03:37:03;;;;;;;10.05;7.00;;;16.60;99.90;;;;;;5013476;28;20030;-56
2022/08/22 03:39:54;;;;;;;10.68;6.95;;;16.70;99.90;;;;;;5013416;28;20405;-57
2022/08/22 03:42:31;;;;;;;11.20;8.07;;;16.70;99.90;;;;;;5013760;28;20087;-56
2022/08/22 03:45:34;;;;;;;9.50;7.10;;;16.70;99.90;;;;;;5013595;28;20034;-56
2022/08/22 03:48:01;;;;;;;11.02;7.63;;;16.70;99.90;;;;;;5013540;28;20121;-56
2022/08/22 03:50:45;;;;;;;11.70;8.23;;;16.80;99.90;;;;;;5013216;28;20500;-56
2022/08/22 03:53:49;;;;;;;9.23;7.20;;;16.70;99.90;;;;;;5013467;28;20030;-56
2022/08/22 03:56:52;;;;;;;12.65;8.05;;;16.80;99.90;;;;;;5013297;28;20041;-54
2022/08/22 03:59:26;;;;;;;13.65;10.00;;;16.80;99.90;;;;;;5012972;28;20025;-54
2022/08/22 04:02:09;;;;;;;13.85;9.52;;;16.80;99.90;;;;;;5013081;28;20489;-55
2022/08/22 04:05:03;;;;;;;16.88;10.50;;;16.80;99.90;;;;;;5013287;28;20053;-55
2022/08/22 04:07:52;;;;;;;17.17;9.90;;;16.80;99.90;;;;;;5013120;28;20027;-55
2022/08/22 04:10:50;;;;;;;14.43;10.55;;;16.80;99.90;;;;;;5013009;28;20058;-55
2022/08/22 04:13:53;;;;;;;15.02;10.95;;;16.80;99.90;;;;;;5012821;28;20036;-55
2022/08/22 04:16:47;;;;;;;14.93;9.60;;;16.90;99.90;;;;;;5012881;28;20026;-54
2022/08/22 04:19:22;;;;;;;14.77;10.43;;;16.90;99.90;;;;;;5012887;28;20026;-55
2022/08/22 04:21:48;;;;;;;13.38;9.18;;;16.90;99.90;;;;;;5012931;28;20030;-55
2022/08/22 04:24:32;;;;;;;15.02;9.55;;;16.90;99.90;;;;;;5012846;28;20044;-55
2022/08/22 04:27:11;;;;;;;13.05;9.57;;;16.90;99.90;;;;;;5012580;28;20052;-55
2022/08/22 04:29:47;;;;;;;14.45;9.45;;;16.90;99.90;;;;;;5012795;28;20117;-57
2022/08/22 04:32:27;;;;;;;17.73;10.55;;;16.90;99.90;;;;;;5012506;28;20022;-57
2022/08/22 04:35:16;;;;;;;17.60;10.95;;;16.90;99.90;;;;;;5012528;28;20377;-57
2022/08/22 04:37:51;;;;;;;16.30;11.38;;;16.90;99.90;;;;;;5012632;28;20110;-57
2022/08/22 04:40:47;;;;;;;16.70;11.75;;;17.00;99.90;;;;;;5012370;28;20034;-57
2022/08/22 04:43:26;;;;;;;17.05;10.65;;;17.00;99.90;;;;;;5004991;28;20041;-56
2022/08/22 04:45:55;;;;;;;18.20;11.65;;;17.00;99.90;;;;;;5012215;28;20036;-57
2022/08/22 04:48:32;;;;;;;21.35;13.82;;;17.00;99.90;;;;;;5012391;28;20120;-54
2022/08/22 04:51:06;;;;;;;21.63;12.95;;;17.00;99.90;;;;;;5012309;28;20792;-57
2022/08/22 04:53:47;;;;;;;19.95;12.43;;;17.00;99.90;;;;;;5012097;28;20026;-57
2022/08/22 04:56:42;;;;;;;23.05;13.07;;;17.00;99.90;;;;;;5012072;28;20176;-57
2022/08/22 04:59:15;;;;;;;22.02;13.85;;;17.00;99.90;;;;;;4983626;28;20159;-57
2022/08/22 05:01:55;;;;;;;20.90;13.73;;;17.00;99.90;;;;;;5012007;28;20045;-58
2022/08/22 05:04:46;;;;;;;20.05;13.48;;;17.10;99.90;;;;;;5010551;28;20079;-57
2022/08/22 05:07:15;;;;;;;20.45;13.45;;;17.10;99.90;;;;;;5012129;28;20022;-55
2022/08/22 05:09:47;;;;;;;19.85;12.60;;;17.10;99.90;;;;;;5011738;28;20034;-57
2022/08/22 05:12:38;;;;;;;23.02;12.98;;;17.10;99.90;;;;;;5012131;28;20036;-55
2022/08/22 05:15:39;;;;;;;19.80;11.65;;;17.10;99.90;;;;;;5011704;28;20079;-55
2022/08/22 05:18:11;;;;;;;15.77;11.57;;;17.10;99.90;;;;;;5011636;28;20248;-55
2022/08/22 05:20:38;;;;;;;17.58;11.80;;;17.10;99.90;;;;;;5011698;28;20037;-55
2022/08/22 05:23:18;;;;;;;19.88;11.80;;;17.10;99.90;;;;;;5011594;28;20470;-55
2022/08/22 05:25:47;;;;;;;21.00;12.60;;;17.10;99.90;;;;;;5011407;28;20092;-55
2022/08/22 05:28:30;;;;;;;19.30;11.85;;;17.10;99.90;;;;;;5011512;28;20385;-55
2022/08/22 05:30:56;;;;;;;22.23;12.90;;;17.10;99.90;;;;;;5011459;28;20048;-56
2022/08/22 05:33:39;;;;;;;16.45;11.68;;;17.10;99.90;;;;;;5011402;28;20034;-55
2022/08/22 05:36:15;;;;;;;19.83;12.43;;;17.10;99.90;;;;;;5011173;28;20034;-56
2022/08/22 05:38:50;;;;;;;17.48;11.45;;;17.10;99.90;;;;;;5020819;28;20053;-55
2022/08/22 05:41:22;;;;;;;20.95;13.45;;;17.10;99.90;;;;;;5033779;28;20049;-55
2022/08/22 05:43:49;;;;;;;20.00;13.57;;;17.10;99.90;;;;;;5016006;28;20556;-56
2022/08/22 05:46:50;;;;;;;20.38;11.98;;;17.10;99.90;;;;;;5029424;28;20042;-56
2022/08/22 05:49:29;;;;;;;18.40;11.88;;;17.10;99.90;;;;;;5016244;28;20037;-56
2022/08/22 05:52:15;;;;;;;18.15;10.80;;;17.10;99.90;;;;;;5027331;28;20117;-55
2022/08/22 05:55:22;;;;;;;17.33;10.68;;;17.10;99.90;;;;;;5030588;28;20029;-55
2022/08/22 05:58:23;;;;;;;17.10;12.13;;;17.10;99.90;;;;;;5040247;28;20104;-55
2022/08/22 06:00:57;;;;;;;14.68;10.57;;;17.00;99.90;;;;;;5004827;28;20045;-57
2022/08/22 06:03:29;;;;;;;18.50;11.13;;;17.00;99.90;;;;;;5037653;28;20369;-56
2022/08/22 06:06:02;;;;;;;15.27;10.35;;;17.10;99.90;;;;;;5038230;28;20090;-55
2022/08/22 06:08:38;;;;;;;16.23;10.23;;;17.10;99.90;;;;;;5038650;28;20088;-56
2022/08/22 06:11:18;;;;;;;14.88;9.82;;;17.00;99.90;;;;;;5032427;28;20036;-56
2022/08/22 06:13:53;;;;;;;16.08;10.05;;;17.00;99.90;;;;;;5029514;28;20604;-56
2022/08/22 06:16:45;;;;;;;17.15;10.10;;;17.00;99.90;;;;;;5011380;28;20014;-56
2022/08/22 06:19:18;;;;;;;12.95;8.63;;;17.00;99.90;;;;;;5027792;28;20021;-56
2022/08/22 06:21:49;;;;;;;15.05;10.00;;;17.00;99.90;;;;;;5009020;28;20170;-58
2022/08/22 06:24:21;;;;;;;14.70;9.10;;;17.00;99.90;;;;;;5029205;28;20018;-56
2022/08/22 06:26:50;;;;;;;16.63;9.68;;;17.00;99.90;;;;;;5026699;28;20041;-57
2022/08/22 06:29:34;;;;;;;13.85;8.07;;;16.90;99.90;;;;;;5010722;28;20025;-57
2022/08/22 06:32:07;;;;;;;12.70;8.00;;;16.90;99.90;;;;;;5027468;28;20530;-57
2022/08/22 06:34:37;;;;;;;14.85;9.45;;;16.90;99.90;;;;;;5028642;28;20370;-57
2022/08/22 06:37:08;;;;;;;12.13;7.80;;;17.00;99.90;;;;;;5028877;28;20024;-56
2022/08/22 06:39:37;;;;;;;15.48;8.85;;;17.00;99.90;;;;;;5028751;28;20042;-55
2022/08/22 06:42:12;;;;;;;12.57;8.02;;;17.00;99.90;;;;;;5028877;28;20029;-56
2022/08/22 06:45:03;;;;;;;15.90;8.32;;;16.90;99.90;;;;;;5028536;28;20017;-56
2022/08/22 06:47:39;;;;;;;11.27;7.63;;;16.90;99.90;;;;;;5018074;28;20425;-56
2022/08/22 06:50:22;;;;;;;13.43;7.75;;;16.90;99.90;;;;;;5027758;28;20043;-59
2022/08/22 06:52:56;;;;;;;10.93;6.85;;;16.90;99.90;;;;;;5028141;28;20060;-56
2022/08/22 06:55:25;;;;;;;13.93;7.75;;;16.90;99.90;;;;;;5028937;28;20096;-57
2022/08/22 06:58:04;;;;;;;13.88;8.23;;;16.90;99.90;;;;;;5028642;28;20028;-55
2022/08/22 07:00:34;;;;;;;19.30;7.75;;;16.90;99.90;;;;;;5028092;28;20037;-55
2022/08/22 07:03:32;;;;;;;12.73;7.82;;;16.90;99.90;;;;;;5028543;28;20025;-55
2022/08/22 07:05:58;;;;;;;16.17;7.97;;;16.90;99.90;;;;;;5027719;28;20520;-55
2022/08/22 07:08:28;;;;;;;10.68;7.40;;;16.90;99.90;;;;;;5028294;28;20039;-55
2022/08/22 07:11:14;;;;;;;10.75;6.35;;;16.90;99.90;;;;;;5025873;28;20445;-56
2022/08/22 07:13:46;;;;;;;11.52;7.40;;;16.80;99.90;;;;;;5028233;28;20034;-57
2022/08/22 07:16:12;;;;;;;12.90;7.88;;;16.90;99.90;;;;;;5028406;28;20022;-56
2022/08/22 07:18:52;;;;;;;14.50;8.65;;;16.90;99.90;;;;;;5028312;28;20021;-56
2022/08/22 07:21:30;;;;;;;13.80;7.63;;;16.90;99.90;;;;;;5010876;28;20441;-56
2022/08/22 07:24:00;;;;;;;12.30;8.38;;;16.90;99.90;;;;;;5028414;28;20631;-58
2022/08/22 07:27:00;;;;;;;13.30;8.02;;;16.90;99.90;;;;;;5025757;28;20085;-55
2022/08/22 07:29:30;;;;;;;12.70;9.02;;;16.90;99.90;;;;;;5026064;28;20045;-56
2022/08/22 07:32:02;;;;;;;12.98;8.77;;;16.90;99.90;;;;;;5009905;28;20124;-56
2022/08/22 07:34:34;;;;;;;11.77;8.05;;;16.90;99.90;;;;;;5031037;28;20029;-57
2022/08/22 07:37:05;;;;;;;14.07;7.82;;;16.90;99.90;;;;;;5036101;28;20029;-57
2022/08/22 07:39:42;;;;;;;13.57;7.47;;;16.90;99.90;;;;;;5034852;28;20037;-57
2022/08/22 07:42:22;;;;;;;12.00;8.05;;;16.90;99.90;;;;;;5036860;28;20543;-57
2022/08/22 07:45:08;;;;;;;13.25;8.13;;;16.90;99.90;;;;;;5037048;28;20044;-55
2022/08/22 07:47:58;;;;;;;11.73;6.75;;;16.90;99.90;;;;;;5033215;28;20096;-57
2022/08/22 07:50:33;;;;;;;13.68;7.68;;;16.90;99.90;;;;;;5038332;28;20032;-57
2022/08/22 07:53:14;;;;;;;9.90;6.95;;;16.90;99.90;;;;;;5037149;28;20481;-57
2022/08/22 07:55:41;;;;;;;11.35;7.55;;;16.90;99.90;;;;;;5037008;28;20394;-56
2022/08/22 07:58:10;;;;;;;11.55;7.45;;;16.90;99.90;;;;;;5028169;28;20096;-55
2022/08/22 08:00:43;;;;;;;12.73;7.35;;;17.00;99.90;;;;;;5028708;28;20037;-56
2022/08/22 08:03:10;;;;;;;10.73;6.95;;;17.00;99.90;;;;;;5038955;28;20021;-56
2022/08/22 08:05:39;;;;;;;9.02;5.55;;;16.90;99.90;;;;;;5043294;28;20089;-56
2022/08/22 08:08:37;;;;;;;11.38;6.57;;;16.90;99.90;;;;;;5040065;28;20040;-56
2022/08/22 08:11:04;;;;;;;7.85;4.95;;;17.00;99.90;;;;;;5018503;28;20572;-57
2022/08/22 08:13:43;;;;;;;8.70;5.20;;;16.90;99.90;;;;;;5039328;28;20099;-57
2022/08/22 08:16:18;;;;;;;12.13;5.82;;;17.00;99.90;;;;;;5035540;28;20045;-56
2022/08/22 08:18:47;;;;;;;9.68;5.40;;;17.00;99.90;;;;;;5042291;28;20030;-56
2022/08/22 08:21:30;;;;;;;9.48;5.00;;;17.00;99.90;;;;;;5046297;28;20037;-56
2022/08/22 08:23:58;;;;;;;8.80;5.13;;;17.00;99.90;;;;;;5012944;28;20049;-56
2022/08/22 08:26:32;;;;;;;10.88;5.15;;;17.00;99.90;;;;;;5012374;28;20054;-56
2022/08/22 08:28:59;;;;;;;12.65;5.72;;;17.00;99.90;;;;;;5030252;28;20448;-56
2022/08/22 08:31:36;;;;;;;10.10;4.70;;;17.00;99.90;;;;;;5031820;28;20041;-56
2022/08/22 08:34:24;;;;;;;7.43;4.47;;;17.00;99.90;;;;;;5036636;28;20021;-57
2022/08/22 08:37:01;;;;;;;10.63;5.13;;;17.00;99.90;;;;;;5042074;28;20036;-56
2022/08/22 08:39:36;;;;;;;8.00;4.78;;;17.00;99.90;;;;;;5046584;28;20045;-57
2022/08/22 08:42:23;;;;;;;13.63;5.80;;;17.00;99.90;;;;;;5050973;28;20503;-57
2022/08/22 08:45:20;;;;;;;12.23;6.05;;;17.00;99.90;;;;;;5052152;28;20025;-57
2022/08/22 08:48:03;;;;;;;11.55;6.13;;;17.00;99.90;;;;;;5051820;28;20033;-57
2022/08/22 08:50:42;;;;;;;12.40;6.35;;;17.00;99.90;;;;;;5011280;28;20485;-57
2022/08/22 08:53:38;;;;;;;13.80;6.78;;;17.00;99.90;;;;;;5010217;28;20034;-57
2022/08/22 08:56:45;;;;;;;13.02;7.25;;;17.00;99.90;;;;;;4994991;28;20030;-57
2022/08/22 08:59:33;;;;;;;13.60;7.50;;;17.00;99.90;;;;;;4971436;28;20048;-57
2022/08/22 09:02:23;;;;;;;16.73;8.25;;;16.90;99.90;;;;;;5010341;28;20119;-57
2022/08/22 09:05:29;;;;;;;16.00;7.70;;;16.90;99.90;;;;;;4994875;28;20033;-58
2022/08/22 09:08:14;;;;;;;13.90;8.10;;;16.90;99.90;;;;;;5011757;28;20065;-55
2022/08/22 09:10:39;;;;;;;19.30;9.00;;;16.90;99.90;;;;;;5011915;28;20022;-56
2022/08/22 09:13:19;;;;;;;20.13;9.27;;;16.90;99.90;;;;;;5028957;28;20127;-58
2022/08/22 09:15:47;;;;;;;15.65;8.27;;;16.90;99.90;;;;;;5056006;22;20050;-90
2022/08/22 09:18:51;;;;;;;15.90;8.40;;;16.90;99.90;;;;;;5034495;28;20030;-87
2022/08/22 09:21:38;;;;;;;18.42;8.13;;;16.90;99.90;;;;;;5017261;28;20034;-86
2022/08/22 09:24:37;;;;;;;16.60;8.10;;;16.90;99.90;;;;;;5011833;28;20026;-87
2022/08/22 09:27:30;;;;;;;16.48;8.68;;;16.90;99.90;;;;;;5011191;28;20064;-88
2022/08/22 09:30:11;;;;;;;18.20;8.75;;;16.90;99.90;;;;;;5010827;28;20049;-89
2022/08/22 09:32:55;;;;;;;21.05;10.23;;;16.90;99.90;;;;;;5010828;28;20030;-88
2022/08/22 09:35:31;;;;;;;16.35;8.65;;;16.90;99.90;;;;;;5010783;28;20332;-87
2022/08/22 09:38:47;;;;;;;17.85;8.60;;;16.90;99.90;;;;;;5014135;28;20025;-89
2022/08/22 09:41:35;;;;;;;16.60;9.82;;;16.90;99.90;;;;;;5004100;28;20045;-89
2022/08/22 09:44:25;;;;;;;20.30;9.13;;;16.90;99.90;;;;;;5012244;28;20022;-89
2022/08/22 09:47:05;;;;;;;19.00;9.07;;;16.90;99.90;;;;;;5009203;28;20073;-87
2022/08/22 09:49:47;;;;;;;18.13;9.77;;;17.00;99.90;;;;;;5012760;28;20050;-88
2022/08/22 09:52:19;;;;;;;19.02;10.13;;;17.00;99.90;;;;;;5012803;28;20037;-89
2022/08/22 09:55:02;;;;;;;23.90;11.52;;;17.00;99.90;;;;;;5013000;28;20056;-89
2022/08/22 09:57:27;;;;;;;17.35;10.07;;;17.00;99.90;;;;;;5028851;28;20077;-89
2022/08/22 10:00:14;;;;;;;22.92;11.80;;;17.00;99.90;;;;;;5012245;28;20061;-88
2022/08/22 10:03:15;;;;;;;22.48;12.60;;;17.10;99.90;;;;;;5012454;28;20026;-87
2022/08/22 10:05:50;;;;;;;22.13;11.95;;;17.10;99.90;;;;;;5012623;28;20026;-87
2022/08/22 10:08:18;;;;;;;23.67;13.48;;;17.20;99.90;;;;;;5029007;28;20030;-87
2022/08/22 10:11:05;;;;;;;21.13;12.27;;;17.20;99.90;;;;;;5013348;28;20026;-89
2022/08/22 10:13:54;;;;;;;22.52;12.55;;;17.20;99.90;;;;;;5028415;28;20037;-90
2022/08/22 10:16:32;;;;;;;23.98;12.73;;;17.30;99.90;;;;;;5012225;28;20383;-89
2022/08/22 10:19:15;;;;;;;21.13;12.50;;;17.30;99.90;;;;;;5012773;28;20069;-90
2022/08/22 10:22:06;;;;;;;25.90;13.95;;;17.30;99.90;;;;;;5012459;28;20393;-89
2022/08/22 10:25:06;;;;;;;21.48;13.05;;;17.30;99.90;;;;;;5012297;28;20036;-90
2022/08/22 10:27:49;;;;;;;29.23;14.25;;;17.30;99.90;;;;;;5004997;28;20036;-89
2022/08/22 10:30:26;;;;;;;27.95;14.35;;;17.30;99.90;;;;;;5028609;28;20026;-88
2022/08/22 10:32:51;;;;;;;27.27;15.73;;;17.40;99.90;;;;;;5028393;28;20041;-87
2022/08/22 10:35:31;;;;;;;25.67;15.77;;;17.40;99.90;;;;;;5011863;28;20029;-87
2022/08/22 10:37:59;;;;;;;25.50;15.60;;;17.40;99.90;;;;;;5011533;28;20030;-87
2022/08/22 10:40:42;;;;;;;30.05;16.67;;;17.40;99.90;;;;;;5011136;28;20120;-87
2022/08/22 10:43:20;;;;;;;30.45;16.38;;;17.30;99.90;;;;;;5011613;28;20392;-89
2022/08/22 10:46:09;;;;;;;29.60;16.70;;;17.30;99.90;;;;;;5028904;28;20040;-89
2022/08/22 10:48:46;;;;;;;25.33;15.88;;;17.30;99.90;;;;;;5011556;28;20033;-88
2022/08/22 10:51:36;;;;;;;29.70;16.90;;;17.40;99.90;;;;;;5027559;28;20389;-89
2022/08/22 10:54:34;;;;;;;29.65;15.95;;;17.40;99.90;;;;;;5027824;28;20037;-88
2022/08/22 10:57:26;;;;;;;32.13;17.50;;;17.30;99.90;;;;;;5027698;28;20049;-88
2022/08/22 10:59:52;;;;;;;28.63;17.58;;;17.40;99.90;;;;;;4995954;28;20128;-88
2022/08/22 11:02:32;;;;;;;31.67;17.70;;;17.40;99.90;;;;;;5011892;28;20049;-88
2022/08/22 11:05:12;;;;;;;34.20;18.58;;;17.40;99.90;;;;;;5027963;28;20041;-86
2022/08/22 11:08:03;;;;;;;32.70;18.00;;;17.40;99.90;;;;;;5010465;28;20033;-87
2022/08/22 11:10:49;;;;;;;34.38;19.35;;;17.40;99.90;;;;;;5016910;28;20096;-89
2022/08/22 11:13:41;;;;;;;35.55;19.33;;;17.40;99.90;;;;;;5032849;28;20781;-85
2022/08/22 11:16:18;;;;;;;36.58;20.30;;;17.40;99.90;;;;;;5010421;28;20085;-86
2022/08/22 11:19:07;;;;;;;31.90;19.40;;;17.40;99.90;;;;;;5029653;28;20037;-85
2022/08/22 11:21:54;;;;;;;36.58;19.85;;;17.40;99.90;;;;;;5028731;28;20038;-85
2022/08/22 11:24:44;;;;;;;36.75;19.67;;;17.40;99.90;;;;;;5020553;28;20062;-87
2022/08/22 11:27:15;;;;;;;41.25;24.00;;;17.50;99.90;;;;;;5009506;28;20029;-87
2022/08/22 11:30:36;;;;;;;39.63;22.65;;;17.50;99.90;;;;;;5021626;28;20026;-85
2022/08/22 11:33:21;;;;;;;37.22;21.38;;;17.50;99.90;;;;;;5038977;28;20033;-85
2022/08/22 11:36:27;;;;;;;35.65;21.50;;;17.50;99.90;;;;;;5039833;28;20022;-88
2022/08/22 11:39:07;;;;;;;42.72;24.50;;;17.60;99.90;;;;;;5030992;28;20037;-85
2022/08/22 11:42:00;;;;;;;42.40;24.67;;;17.60;99.90;;;;;;5044753;28;20035;-85
2022/08/22 11:44:37;;;;;;;45.47;24.83;;;17.60;99.90;;;;;;5029057;28;20415;-85
2022/08/22 11:47:11;;;;;;;47.08;25.00;;;17.60;99.90;;;;;;5029150;28;20030;-87
2022/08/22 11:49:56;;;;;;;41.30;24.00;;;17.60;99.90;;;;;;5028464;28;20032;-87
2022/08/22 11:52:57;;;;;;;43.45;24.67;;;17.60;99.90;;;;;;5047318;28;20040;-85
2022/08/22 11:55:30;;;;;;;44.47;24.70;;;17.70;99.90;;;;;;5009269;28;20124;-84
2022/08/22 11:58:06;;;;;;;41.92;24.55;;;17.70;99.90;;;;;;5038944;28;20030;-83
2022/08/22 12:00:43;;;;;;;43.75;24.75;;;17.70;99.90;;;;;;5013054;28;20058;-88
2022/08/22 12:03:41;;;;;;;42.08;24.23;;;17.70;99.90;;;;;;5013891;28;20030;-84
2022/08/22 12:06:36;;;;;;;70.60;47.63;;;17.80;99.90;;;;;;5027788;28;20026;-85
2022/08/22 12:09:34;;;;;;;42.08;24.23;;;17.80;99.90;;;;;;5045015;28;20030;-86
2022/08/22 12:12:34;;;;;;;40.10;23.83;;;17.80;99.90;;;;;;5044592;28;20377;-82
2022/08/22 12:15:15;;;;;;;42.20;24.05;;;17.80;99.90;;;;;;5044469;28;20063;-87
2022/08/22 12:18:12;;;;;;;45.63;24.38;;;17.80;99.90;;;;;;5025860;28;20021;-90
2022/08/22 12:20:44;;;;;;;41.45;22.75;;;17.90;99.90;;;;;;5036614;28;20686;-90
2022/08/22 12:23:25;;;;;;;48.17;24.67;;;17.90;99.90;;;;;;5015163;28;20038;-87
2022/08/22 12:26:08;;;;;;;34.47;22.45;;;17.90;99.90;;;;;;5014989;28;20508;-84
2022/08/22 12:28:42;;;;;;;36.85;21.40;;;17.90;99.90;;;;;;5027795;28;20021;-83
2022/08/22 12:31:39;;;;;;;48.40;27.92;;;17.90;99.90;;;;;;5024158;28;20053;-89
2022/08/22 12:34:11;;;;;;;41.97;23.50;;;18.00;99.90;;;;;;5035287;28;20030;-89
2022/08/22 12:36:55;;;;;;;36.58;22.15;;;18.00;99.90;;;;;;5026380;28;20021;-92
2022/08/22 12:39:42;;;;;;;41.17;22.65;;;18.00;99.90;;;;;;5025587;28;20045;-88
2022/08/22 12:42:50;;;;;;;42.65;23.73;;;18.00;99.90;;;;;;5041606;28;20034;-89
2022/08/22 12:45:40;;;;;;;42.03;24.30;;;18.10;99.90;;;;;;5025526;28;21470;-91
2022/08/22 12:48:21;;;;;;;46.30;25.27;;;18.20;99.90;;;;;;5043684;28;20026;-89
2022/08/22 12:51:02;;;;;;;42.72;24.73;;;18.20;99.90;;;;;;5029825;28;20033;-88
2022/08/22 12:53:59;;;;;;;42.55;25.73;;;18.30;99.90;;;;;;5030056;28;20492;-89
2022/08/22 12:56:28;;;;;;;42.70;25.92;;;18.50;99.90;;;;;;5045869;28;20112;-86
2022/08/22 12:59:22;;;;;;;44.72;25.98;;;18.50;99.90;;;;;;5044374;28;20093;-84
2022/08/22 13:01:52;;;;;;;46.05;23.73;;;18.50;99.90;;;;;;5030423;28;20100;-86
2022/08/22 13:04:25;;;;;;;37.78;23.25;;;18.50;99.90;;;;;;5023131;28;20045;-86
2022/08/22 13:07:18;;;;;;;40.05;23.10;;;18.50;99.90;;;;;;5025386;28;20021;-92
2022/08/22 13:09:53;;;;;;;41.35;22.63;;;18.60;99.90;;;;;;5043989;28;20018;-87
2022/08/22 13:12:43;;;;;;;40.67;24.55;;;18.60;99.90;;;;;;5031029;28;20018;-88
2022/08/22 13:15:29;;;;;;;38.90;24.40;;;18.60;99.90;;;;;;5046822;28;20029;-88
2022/08/22 13:18:02;;;;;;;46.65;25.63;;;18.70;99.90;;;;;;5030151;28;20037;-86
2022/08/22 13:20:37;;;;;;;46.25;27.17;;;18.60;99.90;;;;;;5013372;28;20022;-87
2022/08/22 13:23:29;;;;;;;45.25;26.92;;;18.60;99.90;;;;;;5026245;28;20374;-87
2022/08/22 13:26:07;;;;;;;43.42;26.13;;;18.60;99.90;;;;;;5025178;28;20036;-88
2022/08/22 13:28:43;;;;;;;44.30;27.63;;;18.60;99.90;;;;;;5028670;28;20104;-89
2022/08/22 13:31:23;;;;;;;40.92;24.95;;;18.70;99.90;;;;;;5037776;28;20028;-87
2022/08/22 13:33:50;;;;;;;41.33;25.15;;;18.70;99.90;;;;;;5037755;28;20124;-88
2022/08/22 13:36:22;;;;;;;41.22;24.95;;;18.70;99.90;;;;;;5021572;28;20040;-86
2022/08/22 13:39:11;;;;;;;40.72;25.35;;;18.70;99.90;;;;;;5039362;28;20057;-87
2022/08/22 13:41:50;;;;;;;40.08;24.70;;;18.70;99.90;;;;;;5020912;28;20040;-87
2022/08/22 17:34:28;;;;;;;62.17;33.95;;;18.30;99.90;;;;;;5047574;28;20676;-87
2022/08/22 17:37:09;;;;;;;72.43;35.53;;;18.30;99.90;;;;;;5040473;28;20048;-87
2022/08/22 17:40:16;;;;;;;72.93;37.10;;;18.30;99.90;;;;;;5035960;28;20017;-89
2022/08/22 17:43:20;;;;;;;71.78;38.47;;;18.30;99.90;;;;;;5031274;28;20076;-89